Time;durP1;ratioP1;P1;durP2;ratioP2;P2;SDS_P1;SDS_P2;PMS_P1;PMS_P2;Temp;Humidity;BMP_temperature;BMP_pressure;BME280_temperature;BME280_humidity;BME280_pressure;Samples;Min_cycle;Max_cycle;Signal;HPM_P1;HPM_P2
2022/01/04 00:02:24;;;;;;;2.65;2.45;;;;;;;;;;5018560;28;20226;-56
2022/01/04 00:04:49;;;;;;;3.15;2.35;;;;;;;;;;5016763;28;20185;-56
2022/01/04 00:07:14;;;;;;;2.55;2.35;;;;;;;;;;5028832;28;20736;-56
2022/01/04 00:09:42;;;;;;;2.20;2.10;;;;;;;;;;4999363;28;20214;-56
2022/01/04 00:14:52;;;;;;;2.70;2.50;;;;;;;;;;5018232;28;20186;-56
2022/01/04 00:17:17;;;;;;;2.70;2.00;;;;;;;;;;5019474;28;20178;-56
2022/01/04 00:19:42;;;;;;;1.90;1.80;;;;;;;;;;5018728;28;20187;-56
2022/01/04 00:22:08;;;;;;;3.25;1.80;;;;;;;;;;5017847;28;20640;-56
2022/01/04 00:24:33;;;;;;;3.30;2.15;;;;;;;;;;5026021;28;20233;-57
2022/01/04 00:26:59;;;;;;;2.20;1.90;;;;;;;;;;4996163;28;20179;-57
2022/01/04 00:29:24;;;;;;;2.80;2.05;;;;;;;;;;5014881;28;20208;-56
2022/01/04 00:31:49;;;;;;;3.22;1.63;;;;;;;;;;5018167;28;20672;-56
2022/01/04 00:34:15;;;;;;;2.30;2.10;;;;;;;;;;5002097;28;20174;-56
2022/01/04 00:36:40;;;;;;;2.10;2.00;;;;;;;;;;5016893;28;20198;-57
2022/01/04 00:39:05;;;;;;;2.00;1.80;;;;;;;;;;5020648;28;20183;-56
2022/01/04 00:41:30;;;;;;;3.35;2.05;;;;;;;;;;5020429;28;20181;-56
2022/01/04 00:43:56;;;;;;;2.00;1.80;;;;;;;;;;5016305;28;20212;-56
2022/01/04 00:46:21;;;;;;;2.20;2.00;;;;;;;;;;5024701;28;20213;-57
2022/01/04 00:51:30;;;;;;;3.33;1.83;;;;;;;;;;5000064;28;20385;-56
2022/01/04 00:53:55;;;;;;;2.03;1.90;;;;;;;;;;5018099;28;20289;-56
2022/01/04 00:56:21;;;;;;;2.55;2.35;;;;;;;;;;5021127;28;20201;-56
2022/01/04 00:58:46;;;;;;;2.50;2.30;;;;;;;;;;5007262;28;20179;-56
2022/01/04 01:01:11;;;;;;;2.47;1.77;;;;;;;;;;5020995;28;20178;-57
2022/01/04 01:03:36;;;;;;;2.53;2.33;;;;;;;;;;5018130;28;20667;-57
2022/01/04 01:06:04;;;;;;;3.17;2.10;;;;;;;;;;5019990;28;20269;-57
2022/01/04 01:08:29;;;;;;;2.20;2.05;;;;;;;;;;5024225;28;20179;-56
2022/01/04 01:10:55;;;;;;;3.28;1.80;;;;;;;;;;5018282;28;20918;-57
2022/01/04 01:13:20;;;;;;;3.08;1.95;;;;;;;;;;5015810;28;20170;-56
2022/01/04 01:15:46;;;;;;;2.85;1.85;;;;;;;;;;5018380;28;20209;-56
2022/01/04 01:18:12;;;;;;;2.33;2.00;;;;;;;;;;5023443;28;20257;-57
2022/01/04 01:20:37;;;;;;;4.68;2.30;;;;;;;;;;5024692;28;20691;-56
2022/01/04 01:23:02;;;;;;;2.78;2.13;;;;;;;;;;5023954;28;20183;-56
2022/01/04 01:25:28;;;;;;;2.20;1.95;;;;;;;;;;5016707;28;20188;-56
2022/01/04 01:27:53;;;;;;;2.33;2.20;;;;;;;;;;5015015;28;20182;-56
2022/01/04 01:30:19;;;;;;;2.08;1.83;;;;;;;;;;5014167;28;20257;-57
2022/01/04 01:32:44;;;;;;;2.50;2.30;;;;;;;;;;5006240;28;20186;-56
2022/01/04 01:35:10;;;;;;;2.00;1.85;;;;;;;;;;5017048;28;20228;-56
2022/01/04 01:37:35;;;;;;;2.00;1.90;;;;;;;;;;5019235;28;20679;-56
2022/01/04 01:40:01;;;;;;;2.47;2.22;;;;;;;;;;5022657;28;20186;-56
2022/01/04 01:42:26;;;;;;;3.00;2.35;;;;;;;;;;5021910;28;20253;-56
2022/01/04 01:44:51;;;;;;;2.35;2.25;;;;;;;;;;5022203;28;20182;-56
2022/01/04 01:47:17;;;;;;;3.75;2.10;;;;;;;;;;5009200;28;20197;-56
2022/01/04 01:49:43;;;;;;;2.78;2.30;;;;;;;;;;5021211;28;20194;-56
2022/01/04 01:52:08;;;;;;;3.78;2.13;;;;;;;;;;5019338;28;20625;-56
2022/01/04 01:54:33;;;;;;;2.65;2.05;;;;;;;;;;5001428;28;20202;-56
2022/01/04 01:56:58;;;;;;;2.60;2.25;;;;;;;;;;5016664;28;20182;-56
2022/01/04 01:59:24;;;;;;;2.78;2.00;;;;;;;;;;5020837;28;20731;-56
2022/01/04 02:01:50;;;;;;;2.40;2.20;;;;;;;;;;5023609;28;20174;-56
2022/01/04 02:04:15;;;;;;;2.90;2.08;;;;;;;;;;5015335;28;20187;-56
2022/01/04 02:06:41;;;;;;;3.38;2.30;;;;;;;;;;5016291;28;20240;-56
2022/01/04 02:09:06;;;;;;;2.45;2.25;;;;;;;;;;5015763;28;20660;-56
2022/01/04 02:11:32;;;;;;;2.70;2.50;;;;;;;;;;5011295;28;20318;-56
2022/01/04 02:13:58;;;;;;;2.35;2.15;;;;;;;;;;5017861;28;20194;-57
2022/01/04 02:16:27;;;;;;;5.18;4.05;;;;;;;;;;5015546;28;20174;-56
2022/01/04 02:18:58;;;;;;;2.60;2.20;;;;;;;;;;5017508;28;20187;-56
2022/01/04 02:21:23;;;;;;;2.17;2.08;;;;;;;;;;5021275;28;20174;-56
2022/01/04 02:23:49;;;;;;;2.22;2.08;;;;;;;;;;5011643;28;20240;-56
2022/01/04 02:26:14;;;;;;;4.82;2.20;;;;;;;;;;5014203;28;20644;-56
2022/01/04 02:28:40;;;;;;;2.63;2.42;;;;;;;;;;5018366;28;20501;-57
2022/01/04 02:31:05;;;;;;;3.35;2.67;;;;;;;;;;5015180;28;20586;-57
2022/01/04 02:33:30;;;;;;;3.03;2.75;;;;;;;;;;5007628;28;20225;-57
2022/01/04 02:35:55;;;;;;;2.55;2.35;;;;;;;;;;5002666;28;20209;-57
2022/01/04 02:38:21;;;;;;;3.22;2.25;;;;;;;;;;4996682;28;20185;-57
2022/01/04 02:40:46;;;;;;;2.40;2.20;;;;;;;;;;5017933;28;20189;-57
2022/01/04 02:43:11;;;;;;;2.38;2.20;;;;;;;;;;5026162;28;20186;-56
2022/01/04 02:45:36;;;;;;;2.55;2.35;;;;;;;;;;5008935;28;20572;-56
2022/01/04 02:48:02;;;;;;;2.30;2.20;;;;;;;;;;5016800;28;20190;-57
2022/01/04 02:50:28;;;;;;;2.40;2.20;;;;;;;;;;5009144;28;20202;-57
2022/01/04 02:52:53;;;;;;;2.80;2.47;;;;;;;;;;5020763;28;20648;-57
2022/01/04 02:55:19;;;;;;;3.28;2.22;;;;;;;;;;5011567;28;20879;-57
2022/01/04 02:57:44;;;;;;;3.15;2.20;;;;;;;;;;4980758;28;20457;-57
2022/01/04 03:00:11;;;;;;;2.50;2.20;;;;;;;;;;4997129;28;20194;-57
2022/01/04 03:02:37;;;;;;;2.42;2.33;;;;;;;;;;5017567;28;20209;-56
2022/01/04 03:05:02;;;;;;;2.60;2.40;;;;;;;;;;5003127;28;20193;-57
2022/01/04 03:07:28;;;;;;;2.38;2.17;;;;;;;;;;5008933;28;20193;-56
2022/01/04 03:09:53;;;;;;;2.22;2.03;;;;;;;;;;5013741;28;20199;-57
2022/01/04 03:12:19;;;;;;;3.47;1.83;;;;;;;;;;5012666;28;20285;-56
2022/01/04 03:14:44;;;;;;;2.55;2.35;;;;;;;;;;5016994;28;20186;-56
2022/01/04 03:17:09;;;;;;;2.13;1.95;;;;;;;;;;5012670;28;20186;-56
2022/01/04 03:19:35;;;;;;;2.47;2.00;;;;;;;;;;5014696;28;20201;-56
2022/01/04 03:22:00;;;;;;;1.98;1.88;;;;;;;;;;5017098;28;20186;-56
2022/01/04 03:24:25;;;;;;;2.10;2.00;;;;;;;;;;5019043;28;20684;-56
2022/01/04 03:26:51;;;;;;;1.80;1.70;;;;;;;;;;5014982;28;20571;-56
2022/01/04 03:29:16;;;;;;;2.40;1.85;;;;;;;;;;5013111;28;20250;-56
2022/01/04 03:31:42;;;;;;;2.67;1.73;;;;;;;;;;5008127;28;20199;-56
2022/01/04 03:34:08;;;;;;;3.78;2.28;;;;;;;;;;5018334;28;20237;-57
2022/01/04 03:36:33;;;;;;;1.85;1.73;;;;;;;;;;5013989;28;20693;-56
2022/01/04 03:38:59;;;;;;;2.92;1.73;;;;;;;;;;4999050;28;20182;-56
2022/01/04 03:41:26;;;;;;;1.73;1.63;;;;;;;;;;5015625;28;20198;-56
2022/01/04 03:43:53;;;;;;;3.67;2.10;;;;;;;;;;5021126;28;20273;-56
2022/01/04 03:46:18;;;;;;;1.98;1.88;;;;;;;;;;5021286;28;20190;-56
2022/01/04 03:48:44;;;;;;;2.15;2.00;;;;;;;;;;5022330;28;20186;-56
2022/01/04 03:51:09;;;;;;;2.53;2.22;;;;;;;;;;5025968;28;21093;-56
2022/01/04 03:53:35;;;;;;;6.20;2.20;;;;;;;;;;5020424;28;20207;-56
2022/01/04 03:56:00;;;;;;;2.47;1.75;;;;;;;;;;5015005;28;20266;-56
2022/01/04 03:58:26;;;;;;;2.45;1.80;;;;;;;;;;5019931;28;20186;-56
2022/01/04 04:00:51;;;;;;;1.88;1.77;;;;;;;;;;5003300;28;20191;-57
2022/01/04 04:03:17;;;;;;;1.85;1.67;;;;;;;;;;4999074;28;20294;-57
2022/01/04 04:05:42;;;;;;;1.80;1.42;;;;;;;;;;5021391;28;20189;-57
2022/01/04 04:08:07;;;;;;;1.88;1.60;;;;;;;;;;5023310;28;20257;-57
2022/01/04 04:10:33;;;;;;;1.83;1.67;;;;;;;;;;5018852;28;20202;-56
2022/01/04 04:12:58;;;;;;;2.42;1.90;;;;;;;;;;5020456;28;20951;-56
2022/01/04 04:15:23;;;;;;;1.75;1.65;;;;;;;;;;5019982;28;20179;-56
2022/01/04 04:17:49;;;;;;;1.60;1.50;;;;;;;;;;5009283;28;20190;-56
2022/01/04 04:20:14;;;;;;;1.52;1.42;;;;;;;;;;5023593;28;20702;-56
2022/01/04 04:22:39;;;;;;;1.42;1.33;;;;;;;;;;5017679;28;20212;-56
2022/01/04 04:25:05;;;;;;;1.70;1.60;;;;;;;;;;5019551;28;20194;-57
2022/01/04 04:27:30;;;;;;;1.50;1.40;;;;;;;;;;5020428;28;20191;-56
2022/01/04 04:29:55;;;;;;;1.50;1.40;;;;;;;;;;5018511;28;20207;-56
2022/01/04 04:32:21;;;;;;;2.22;1.58;;;;;;;;;;5012570;28;20194;-56
2022/01/04 04:34:46;;;;;;;1.85;1.70;;;;;;;;;;5025589;28;20194;-56
2022/01/04 04:37:11;;;;;;;1.67;1.60;;;;;;;;;;5016484;28;20189;-56
2022/01/04 04:39:37;;;;;;;2.67;2.33;;;;;;;;;;5024208;28;20259;-56
2022/01/04 04:42:02;;;;;;;1.95;1.73;;;;;;;;;;5008582;28;20187;-56
2022/01/04 04:44:27;;;;;;;2.03;1.92;;;;;;;;;;4998390;28;20214;-57
2022/01/04 04:46:53;;;;;;;1.20;1.10;;;;;;;;;;5019373;28;20179;-57
2022/01/04 04:49:18;;;;;;;1.85;1.60;;;;;;;;;;5024959;28;20729;-57
2022/01/04 04:51:43;;;;;;;1.60;1.50;;;;;;;;;;5022686;28;20269;-57
2022/01/04 04:54:08;;;;;;;2.40;1.88;;;;;;;;;;5017649;28;20211;-57
2022/01/04 04:56:38;;;;;;;2.28;1.80;;;;;;;;;;5015706;28;20179;-56
2022/01/04 04:59:03;;;;;;;3.30;1.77;;;;;;;;;;5021276;28;20606;-57
2022/01/04 05:01:28;;;;;;;2.13;2.00;;;;;;;;;;5025865;28;20178;-57
2022/01/04 05:03:53;;;;;;;1.70;1.60;;;;;;;;;;5017220;28;20257;-57
2022/01/04 05:06:19;;;;;;;1.60;1.50;;;;;;;;;;5018250;28;21094;-57
2022/01/04 05:08:44;;;;;;;2.33;1.80;;;;;;;;;;5020780;28;20233;-57
2022/01/04 05:11:09;;;;;;;1.83;1.73;;;;;;;;;;5019260;28;20759;-57
2022/01/04 05:13:34;;;;;;;2.05;1.60;;;;;;;;;;5023553;28;20183;-57
2022/01/04 05:16:00;;;;;;;1.70;1.58;;;;;;;;;;5015734;28;20236;-56
2022/01/04 05:18:25;;;;;;;2.47;2.28;;;;;;;;;;5018278;28;21126;-56
2022/01/04 05:20:50;;;;;;;1.70;1.60;;;;;;;;;;5024978;28;20194;-56
2022/01/04 05:23:16;;;;;;;2.95;1.92;;;;;;;;;;5012358;28;20179;-56
2022/01/04 05:25:41;;;;;;;2.72;2.08;;;;;;;;;;4996605;28;20922;-57
2022/01/04 05:28:06;;;;;;;2.08;1.92;;;;;;;;;;4998831;28;20186;-56
2022/01/04 05:30:31;;;;;;;2.13;1.80;;;;;;;;;;5007669;28;20206;-57
2022/01/04 05:32:57;;;;;;;1.42;1.40;;;;;;;;;;5021316;28;20202;-57
2022/01/04 05:35:22;;;;;;;2.22;2.10;;;;;;;;;;5007924;28;20587;-56
2022/01/04 05:37:47;;;;;;;1.98;1.88;;;;;;;;;;5015723;28;20178;-57
2022/01/04 05:40:12;;;;;;;1.92;1.60;;;;;;;;;;5017338;28;20182;-57
2022/01/04 05:42:38;;;;;;;2.65;1.83;;;;;;;;;;5023706;28;20190;-56
2022/01/04 05:45:03;;;;;;;2.15;2.03;;;;;;;;;;5019626;28;20272;-57
2022/01/04 05:47:29;;;;;;;1.70;1.55;;;;;;;;;;5016773;28;20190;-57
2022/01/04 05:49:54;;;;;;;3.17;2.03;;;;;;;;;;5018634;28;20314;-56
2022/01/04 05:52:19;;;;;;;3.28;2.20;;;;;;;;;;5008735;28;20206;-57
2022/01/04 05:54:47;;;;;;;2.08;1.80;;;;;;;;;;5017619;28;20210;-57
2022/01/04 05:57:13;;;;;;;5.65;3.53;;;;;;;;;;5021032;28;20178;-57
2022/01/04 05:59:38;;;;;;;2.42;2.20;;;;;;;;;;5019783;28;20179;-56
2022/01/04 06:02:03;;;;;;;2.90;2.70;;;;;;;;;;5021925;28;20281;-57
2022/01/04 06:04:29;;;;;;;4.60;1.75;;;;;;;;;;5022132;28;20187;-56
2022/01/04 06:06:54;;;;;;;2.10;2.00;;;;;;;;;;5015327;28;20233;-56
2022/01/04 06:09:25;;;;;;;3.22;2.50;;;;;;;;;;5016986;28;20777;-56
2022/01/04 06:16:59;;;;;;;2.45;2.25;;;;;;;;;;5011425;28;20178;-57
2022/01/04 06:19:24;;;;;;;2.03;1.92;;;;;;;;;;5014263;28;20175;-57
2022/01/04 06:21:50;;;;;;;1.80;1.70;;;;;;;;;;5015331;28;20204;-57
2022/01/04 06:24:15;;;;;;;2.33;1.90;;;;;;;;;;5018839;28;20614;-57
2022/01/04 06:26:40;;;;;;;2.10;2.00;;;;;;;;;;5012569;28;20290;-57
2022/01/04 06:29:06;;;;;;;2.58;2.10;;;;;;;;;;4996101;28;20233;-57
2022/01/04 06:31:32;;;;;;;4.57;2.63;;;;;;;;;;5017059;28;20214;-57
2022/01/04 06:33:58;;;;;;;3.25;3.00;;;;;;;;;;5024829;28;20252;-57
2022/01/04 06:36:23;;;;;;;2.10;1.90;;;;;;;;;;5020790;28;20666;-57
2022/01/04 06:38:48;;;;;;;2.20;2.00;;;;;;;;;;5009375;28;20206;-57
2022/01/04 06:41:14;;;;;;;1.80;1.70;;;;;;;;;;5021064;28;20178;-57
2022/01/04 06:43:39;;;;;;;2.03;1.92;;;;;;;;;;5019542;28;20630;-57
2022/01/04 06:46:04;;;;;;;2.97;1.98;;;;;;;;;;5023297;28;20200;-57
2022/01/04 06:48:29;;;;;;;2.40;2.20;;;;;;;;;;5012574;28;20224;-58
2022/01/04 06:50:57;;;;;;;2.63;2.20;;;;;;;;;;5016161;28;20205;-58
2022/01/04 06:53:22;;;;;;;1.90;1.80;;;;;;;;;;5018657;28;20263;-57
2022/01/04 06:55:50;;;;;;;2.00;1.90;;;;;;;;;;5021754;28;20182;-57
2022/01/04 06:58:15;;;;;;;2.40;2.25;;;;;;;;;;5018471;28;20213;-57
2022/01/04 07:00:41;;;;;;;2.30;2.10;;;;;;;;;;5014026;28;20187;-57
2022/01/04 07:03:06;;;;;;;1.90;1.70;;;;;;;;;;5020081;28;20191;-57
2022/01/04 07:05:33;;;;;;;1.95;1.85;;;;;;;;;;5022899;28;20641;-56
2022/01/04 07:07:58;;;;;;;2.10;2.00;;;;;;;;;;5021171;28;20198;-56
2022/01/04 07:10:23;;;;;;;1.80;1.70;;;;;;;;;;4998000;28;20204;-56
2022/01/04 07:12:49;;;;;;;2.03;1.88;;;;;;;;;;5016519;28;20850;-57
2022/01/04 07:15:14;;;;;;;1.77;1.67;;;;;;;;;;5021505;28;20178;-56
2022/01/04 07:17:41;;;;;;;2.53;2.33;;;;;;;;;;5013773;28;20257;-56
2022/01/04 07:20:07;;;;;;;2.30;2.20;;;;;;;;;;5020746;28;20252;-57
2022/01/04 07:22:32;;;;;;;1.92;1.83;;;;;;;;;;5025103;28;20195;-57
2022/01/04 07:24:57;;;;;;;2.35;2.15;;;;;;;;;;5019822;28;20182;-56
2022/01/04 07:27:23;;;;;;;1.75;1.65;;;;;;;;;;5017066;28;20190;-56
2022/01/04 07:29:48;;;;;;;2.53;2.28;;;;;;;;;;5017722;28;20225;-57
2022/01/04 07:32:13;;;;;;;2.42;2.22;;;;;;;;;;5019208;28;20194;-56
2022/01/04 07:34:40;;;;;;;2.10;2.00;;;;;;;;;;5020853;28;20183;-56
2022/01/04 07:37:06;;;;;;;2.90;2.10;;;;;;;;;;5015231;28;20290;-56
2022/01/04 07:39:31;;;;;;;1.83;1.73;;;;;;;;;;5013385;28;20707;-56
2022/01/04 07:41:57;;;;;;;4.60;2.10;;;;;;;;;;5025825;28;20198;-56
2022/01/04 07:44:23;;;;;;;2.08;1.98;;;;;;;;;;5018555;28;20197;-56
2022/01/04 07:46:48;;;;;;;1.85;1.75;;;;;;;;;;5018494;28;20568;-56
2022/01/04 07:49:15;;;;;;;2.47;2.00;;;;;;;;;;5018874;28;20186;-56
2022/01/04 07:51:41;;;;;;;3.15;2.08;;;;;;;;;;5019686;28;20910;-57
2022/01/04 07:54:06;;;;;;;2.10;1.95;;;;;;;;;;5019344;28;20200;-56
2022/01/04 07:56:31;;;;;;;4.00;2.90;;;;;;;;;;5021874;28;20205;-56
2022/01/04 07:59:00;;;;;;;2.72;2.53;;;;;;;;;;5023670;28;20174;-56
2022/01/04 08:01:26;;;;;;;5.47;4.50;;;;;;;;;;5016908;28;20267;-56
2022/01/04 08:03:51;;;;;;;5.00;3.15;;;;;;;;;;5019995;28;20700;-55
2022/01/04 08:06:16;;;;;;;5.13;4.15;;;;;;;;;;5011761;28;20250;-56
2022/01/04 08:08:42;;;;;;;6.72;3.50;;;;;;;;;;5021870;28;20636;-56
2022/01/04 08:11:08;;;;;;;3.50;3.20;;;;;;;;;;5027556;28;20213;-56
2022/01/04 08:13:33;;;;;;;3.55;3.25;;;;;;;;;;5018402;28;20171;-56
2022/01/04 08:15:58;;;;;;;3.40;2.22;;;;;;;;;;5018975;28;20653;-56
2022/01/04 08:18:24;;;;;;;2.80;2.25;;;;;;;;;;5021491;28;20723;-56
2022/01/04 08:20:53;;;;;;;5.00;3.22;;;;;;;;;;5018011;28;20206;-56
2022/01/04 08:23:19;;;;;;;2.78;2.42;;;;;;;;;;5017044;28;20209;-56
2022/01/04 08:25:44;;;;;;;4.25;3.70;;;;;;;;;;5014625;28;20202;-56
2022/01/04 08:28:09;;;;;;;3.40;3.10;;;;;;;;;;5014023;28;20183;-57
2022/01/04 08:30:35;;;;;;;6.28;3.40;;;;;;;;;;5021075;28;20221;-56
2022/01/04 08:33:00;;;;;;;3.00;2.65;;;;;;;;;;5019812;28;20179;-56
2022/01/04 08:35:25;;;;;;;9.55;7.28;;;;;;;;;;4998256;28;20234;-56
2022/01/04 08:37:51;;;;;;;12.15;6.75;;;;;;;;;;5000303;28;20183;-57
2022/01/04 08:40:16;;;;;;;12.38;8.45;;;;;;;;;;5018304;28;20179;-56
2022/01/04 08:42:41;;;;;;;16.23;9.02;;;;;;;;;;5021515;28;20194;-56
2022/01/04 08:45:07;;;;;;;6.78;5.05;;;;;;;;;;5018340;28;20185;-56
2022/01/04 08:47:33;;;;;;;9.48;6.18;;;;;;;;;;5016235;28;20675;-56
2022/01/04 08:49:59;;;;;;;11.00;7.13;;;;;;;;;;5013186;28;20199;-57
2022/01/04 08:52:26;;;;;;;13.48;8.30;;;;;;;;;;5011227;28;20171;-57
2022/01/04 08:54:51;;;;;;;14.60;8.68;;;;;;;;;;5005661;28;20233;-57
2022/01/04 08:57:16;;;;;;;10.73;7.13;;;;;;;;;;4998768;28;20214;-56
2022/01/04 08:59:42;;;;;;;7.78;6.35;;;;;;;;;;5019828;28;21083;-56
2022/01/04 09:02:07;;;;;;;10.25;6.85;;;;;;;;;;5018234;28;20171;-56
2022/01/04 09:04:32;;;;;;;20.05;12.38;;;;;;;;;;5024880;28;20566;-57
2022/01/04 09:06:57;;;;;;;17.20;8.98;;;;;;;;;;5022032;28;20232;-57
2022/01/04 09:09:23;;;;;;;11.93;6.20;;;;;;;;;;5014722;28;20268;-56
2022/01/04 09:11:48;;;;;;;10.05;5.70;;;;;;;;;;5020239;28;20178;-56
2022/01/04 09:19:31;;;;;;;7.65;5.68;;;;;;;;;;5018407;28;20541;-56
2022/01/04 09:21:57;;;;;;;12.10;5.57;;;;;;;;;;5020445;28;20684;-57
2022/01/04 09:24:22;;;;;;;8.77;6.78;;;;;;;;;;5013783;28;20175;-57
2022/01/04 09:26:47;;;;;;;9.25;5.47;;;;;;;;;;5027281;28;20587;-57
2022/01/04 09:29:13;;;;;;;7.30;5.05;;;;;;;;;;5021635;28;20181;-57
2022/01/04 09:31:39;;;;;;;10.88;4.85;;;;;;;;;;5007771;28;20288;-56
2022/01/04 09:34:04;;;;;;;8.25;5.22;;;;;;;;;;5015696;28;20181;-57
2022/01/04 09:36:37;;;;;;;6.03;5.03;;;;;;;;;;5000309;28;20194;-56
2022/01/04 09:39:05;;;;;;;7.70;5.93;;;;;;;;;;5017272;28;20189;-56
2022/01/04 09:41:30;;;;;;;7.60;5.85;;;;;;;;;;5018486;28;20991;-56
2022/01/04 09:43:56;;;;;;;9.60;6.70;;;;;;;;;;5016993;28;20265;-56
2022/01/04 09:46:21;;;;;;;9.23;5.93;;;;;;;;;;5018536;28;20187;-56
2022/01/04 09:48:46;;;;;;;9.70;5.57;;;;;;;;;;5021928;28;20186;-58
2022/01/04 09:51:12;;;;;;;8.80;5.72;;;;;;;;;;4998992;28;20301;-56
2022/01/04 09:53:37;;;;;;;7.63;5.03;;;;;;;;;;5012205;28;20206;-56
2022/01/04 09:56:03;;;;;;;7.80;4.15;;;;;;;;;;5022016;28;20302;-56
2022/01/04 09:58:28;;;;;;;6.72;4.28;;;;;;;;;;5002979;28;20879;-57
2022/01/04 10:00:54;;;;;;;7.18;4.78;;;;;;;;;;5016755;28;20847;-56
2022/01/04 10:03:25;;;;;;;12.18;5.50;;;;;;;;;;5017728;28;20183;-56
2022/01/04 10:05:59;;;;;;;11.05;5.97;;;;;;;;;;5020309;28;20186;-56
2022/01/04 10:08:25;;;;;;;7.60;5.65;;;;;;;;;;5011919;28;20182;-56
2022/01/04 10:10:59;;;;;;;14.65;8.60;;;;;;;;;;5010565;28;21109;-56
2022/01/04 10:13:28;;;;;;;12.35;7.63;;;;;;;;;;5014028;28;20186;-57
2022/01/04 10:15:53;;;;;;;9.70;6.50;;;;;;;;;;5016399;28;20229;-57
2022/01/04 10:18:24;;;;;;;12.20;5.82;;;;;;;;;;5018242;28;20206;-57
2022/01/04 10:20:51;;;;;;;7.65;5.75;;;;;;;;;;4997966;28;20621;-57
2022/01/04 10:23:26;;;;;;;11.57;7.60;;;;;;;;;;5018080;28;20182;-57
2022/01/04 10:25:52;;;;;;;19.75;11.65;;;;;;;;;;5012903;28;20248;-57
2022/01/04 10:28:28;;;;;;;14.10;9.48;;;;;;;;;;5017665;28;20245;-57
2022/01/04 10:30:53;;;;;;;14.20;9.65;;;;;;;;;;5015094;28;20209;-57
2022/01/04 10:33:21;;;;;;;11.23;8.13;;;;;;;;;;5018600;28;20252;-57
2022/01/04 10:35:48;;;;;;;11.15;7.18;;;;;;;;;;5017380;28;20190;-57
2022/01/04 10:38:13;;;;;;;12.98;8.27;;;;;;;;;;5026417;28;20174;-57
2022/01/04 10:40:39;;;;;;;15.40;10.18;;;;;;;;;;4998083;28;20794;-57
2022/01/04 10:43:09;;;;;;;12.57;7.43;;;;;;;;;;5016577;28;20182;-57
2022/01/04 10:45:35;;;;;;;10.70;6.97;;;;;;;;;;5021621;28;20205;-57
2022/01/04 10:48:09;;;;;;;10.32;5.32;;;;;;;;;;5014085;28;20179;-57
2022/01/04 10:50:35;;;;;;;17.73;7.55;;;;;;;;;;5022962;28;20709;-57
2022/01/04 10:53:00;;;;;;;17.42;8.65;;;;;;;;;;5028332;28;20703;-57
2022/01/04 10:55:35;;;;;;;10.13;7.10;;;;;;;;;;5026684;28;20667;-56
2022/01/04 10:58:01;;;;;;;11.30;6.95;;;;;;;;;;5010837;28;20171;-56
2022/01/04 11:00:27;;;;;;;11.23;6.55;;;;;;;;;;5010515;28;20179;-56
2022/01/04 11:02:53;;;;;;;11.57;8.40;;;;;;;;;;5000424;28;20191;-58
2022/01/04 11:05:20;;;;;;;7.05;4.93;;;;;;;;;;5001828;28;20613;-58
2022/01/04 11:08:00;;;;;;;10.02;5.13;;;;;;;;;;5016201;28;20182;-57
2022/01/04 11:10:28;;;;;;;10.00;6.00;;;;;;;;;;5019806;28;20280;-57
2022/01/04 11:12:55;;;;;;;9.48;4.97;;;;;;;;;;5025205;28;20185;-57
2022/01/04 11:15:20;;;;;;;9.32;6.47;;;;;;;;;;5021078;28;20272;-57
2022/01/04 11:17:46;;;;;;;12.23;6.35;;;;;;;;;;5020484;28;20240;-57
2022/01/04 11:20:11;;;;;;;8.35;4.70;;;;;;;;;;5019608;28;20186;-56
2022/01/04 11:22:40;;;;;;;5.57;4.82;;;;;;;;;;5006161;28;20183;-57
2022/01/04 11:25:05;;;;;;;9.30;6.28;;;;;;;;;;5019469;28;20185;-58
2022/01/04 11:27:33;;;;;;;8.25;5.10;;;;;;;;;;5023964;28;20175;-57
2022/01/04 11:29:58;;;;;;;5.18;4.47;;;;;;;;;;5021826;28;20213;-57
2022/01/04 11:32:24;;;;;;;4.68;4.00;;;;;;;;;;5017003;28;20671;-56
2022/01/04 11:35:02;;;;;;;7.55;4.50;;;;;;;;;;5021694;28;20178;-57
2022/01/04 11:37:27;;;;;;;8.18;5.35;;;;;;;;;;5016174;28;20178;-57
2022/01/04 11:39:52;;;;;;;5.10;4.03;;;;;;;;;;5013097;28;20182;-57
2022/01/04 11:42:30;;;;;;;5.07;3.90;;;;;;;;;;5018786;28;20187;-58
2022/01/04 11:44:55;;;;;;;5.60;4.18;;;;;;;;;;5018809;28;20560;-57
2022/01/04 11:47:26;;;;;;;4.80;3.47;;;;;;;;;;5020519;28;20174;-57
2022/01/04 11:50:25;;;;;;;6.38;3.83;;;;;;;;;;5019534;28;20268;-57
2022/01/04 11:52:52;;;;;;;4.72;4.15;;;;;;;;;;4978689;28;20222;-57
2022/01/04 11:55:18;;;;;;;6.30;4.03;;;;;;;;;;5018863;28;20175;-56
2022/01/04 11:57:44;;;;;;;9.70;6.28;;;;;;;;;;5029529;28;20174;-56
2022/01/04 12:00:09;;;;;;;6.90;4.68;;;;;;;;;;5015025;28;20179;-56
2022/01/04 12:02:43;;;;;;;6.05;5.20;;;;;;;;;;5017808;28;20634;-58
2022/01/04 12:05:13;;;;;;;12.73;9.07;;;;;;;;;;5018369;28;20257;-57
2022/01/04 12:07:38;;;;;;;7.68;5.85;;;;;;;;;;5019599;28;20659;-57
2022/01/04 12:10:19;;;;;;;6.23;4.87;;;;;;;;;;5024934;28;20194;-58
2022/01/04 12:12:54;;;;;;;5.85;5.25;;;;;;;;;;5024959;28;20440;-57
2022/01/04 12:15:34;;;;;;;6.60;4.93;;;;;;;;;;5013560;28;20278;-57
2022/01/04 12:18:04;;;;;;;10.80;6.50;;;;;;;;;;5023016;28;20611;-56
2022/01/04 12:20:50;;;;;;;13.85;11.13;;;;;;;;;;5022674;28;20190;-56
2022/01/04 12:23:35;;;;;;;8.75;5.72;;;;;;;;;;5012242;28;20195;-56
2022/01/04 12:26:03;;;;;;;6.50;5.05;;;;;;;;;;4999580;28;20909;-57
2022/01/04 12:28:29;;;;;;;6.88;5.25;;;;;;;;;;5001264;28;20863;-57
2022/01/04 12:31:12;;;;;;;8.10;5.65;;;;;;;;;;5021884;28;20324;-57
2022/01/04 12:33:38;;;;;;;6.95;4.78;;;;;;;;;;5018481;28;20278;-58
2022/01/04 12:36:03;;;;;;;8.00;4.70;;;;;;;;;;5019510;28;20273;-57
2022/01/04 12:38:30;;;;;;;6.65;4.72;;;;;;;;;;5019878;28;20186;-57
2022/01/04 12:40:55;;;;;;;8.88;6.88;;;;;;;;;;5022241;28;20194;-57
2022/01/04 12:43:21;;;;;;;6.70;4.95;;;;;;;;;;5019198;28;20183;-57
2022/01/04 12:45:55;;;;;;;8.07;6.05;;;;;;;;;;5005059;28;20787;-57
2022/01/04 12:48:40;;;;;;;8.30;6.55;;;;;;;;;;5018420;28;20184;-56
2022/01/04 12:51:23;;;;;;;10.32;6.93;;;;;;;;;;5020266;28;20204;-57
2022/01/04 12:53:48;;;;;;;13.38;5.72;;;;;;;;;;5003201;28;20199;-56
2022/01/04 12:56:13;;;;;;;10.05;5.80;;;;;;;;;;5015007;28;20674;-57
2022/01/04 12:58:39;;;;;;;13.32;9.10;;;;;;;;;;5015003;28;20175;-57
2022/01/04 13:01:04;;;;;;;13.57;7.95;;;;;;;;;;5023234;28;20244;-57
2022/01/04 13:03:32;;;;;;;8.95;6.90;;;;;;;;;;5011542;28;20684;-57
2022/01/04 13:06:04;;;;;;;13.77;7.35;;;;;;;;;;5016469;28;20178;-57
2022/01/04 13:08:29;;;;;;;10.48;7.30;;;;;;;;;;5016452;28;21163;-57
2022/01/04 13:11:04;;;;;;;9.82;6.38;;;;;;;;;;5018396;28;20229;-58
2022/01/04 13:13:32;;;;;;;8.35;5.95;;;;;;;;;;5021103;28;20729;-57
2022/01/04 13:16:16;;;;;;;12.00;6.65;;;;;;;;;;5016687;28;20182;-57
2022/01/04 13:18:41;;;;;;;11.35;6.75;;;;;;;;;;5008686;28;20714;-57
2022/01/04 13:21:07;;;;;;;8.63;6.25;;;;;;;;;;5017587;28;20232;-57
2022/01/04 13:23:38;;;;;;;11.85;6.13;;;;;;;;;;5011184;28;20309;-57
2022/01/04 13:26:04;;;;;;;11.63;6.65;;;;;;;;;;5021700;28;20175;-57
2022/01/04 13:28:29;;;;;;;10.40;6.05;;;;;;;;;;5020034;28;20188;-57
2022/01/04 13:30:54;;;;;;;7.18;6.43;;;;;;;;;;5017156;28;20232;-57
2022/01/04 13:33:23;;;;;;;13.38;8.23;;;;;;;;;;5002790;28;20170;-57
2022/01/04 13:35:56;;;;;;;9.82;6.20;;;;;;;;;;5056727;28;20573;-56
2022/01/04 13:38:22;;;;;;;8.98;6.00;;;;;;;;;;5054826;28;20186;-56
2022/01/04 13:40:48;;;;;;;10.90;6.30;;;;;;;;;;5059248;28;20170;-56
2022/01/04 13:43:17;;;;;;;8.30;6.15;;;;;;;;;;5048301;28;20195;-56
2022/01/04 13:45:44;;;;;;;8.30;5.70;;;;;;;;;;5047466;28;20639;-58
2022/01/04 13:48:10;;;;;;;7.78;5.70;;;;;;;;;;5048179;28;20202;-56
2022/01/04 13:50:41;;;;;;;7.22;5.45;;;;;;;;;;5032908;28;20884;-57
2022/01/04 13:53:17;;;;;;;6.70;5.72;;;;;;;;;;5061336;28;20217;-56
2022/01/04 13:55:45;;;;;;;8.10;5.10;;;;;;;;;;5016241;28;20190;-57
2022/01/04 13:58:11;;;;;;;8.45;5.43;;;;;;;;;;5015717;28;20171;-56
2022/01/04 14:00:38;;;;;;;7.28;4.50;;;;;;;;;;5016640;28;20190;-57
2022/01/04 14:03:23;;;;;;;8.27;5.03;;;;;;;;;;5016425;28;20175;-56
2022/01/04 14:05:48;;;;;;;6.88;5.50;;;;;;;;;;5016915;28;20186;-56
2022/01/04 14:08:13;;;;;;;6.68;5.32;;;;;;;;;;5022181;28;20265;-56
2022/01/04 14:10:45;;;;;;;7.07;4.95;;;;;;;;;;4998235;28;20777;-57
2022/01/04 14:13:27;;;;;;;8.48;5.20;;;;;;;;;;5013422;28;20178;-57
2022/01/04 14:16:08;;;;;;;10.23;5.57;;;;;;;;;;5013701;28;20241;-57
2022/01/04 14:18:34;;;;;;;6.82;5.35;;;;;;;;;;5015881;28;20189;-56
2022/01/04 14:20:59;;;;;;;6.28;4.60;;;;;;;;;;5038588;28;20269;-56
2022/01/04 14:23:31;;;;;;;5.75;4.78;;;;;;;;;;5020161;28;20194;-56
2022/01/04 14:26:06;;;;;;;5.47;4.60;;;;;;;;;;5017007;28;20176;-56
2022/01/04 14:28:32;;;;;;;8.60;4.90;;;;;;;;;;5011334;28;20674;-56
2022/01/04 14:30:57;;;;;;;7.38;5.50;;;;;;;;;;5016512;28;20853;-57
2022/01/04 14:33:23;;;;;;;9.13;4.80;;;;;;;;;;5012500;28;20175;-56
2022/01/04 14:35:48;;;;;;;12.18;4.68;;;;;;;;;;5029299;28;20230;-57
2022/01/04 14:38:13;;;;;;;8.65;5.35;;;;;;;;;;5017131;28;20225;-57
2022/01/04 14:40:39;;;;;;;10.73;5.40;;;;;;;;;;5017896;28;20237;-57
2022/01/04 14:43:04;;;;;;;8.15;5.47;;;;;;;;;;5017741;28;20561;-57
2022/01/04 14:45:30;;;;;;;8.75;5.97;;;;;;;;;;5012312;28;20183;-57
2022/01/04 14:47:56;;;;;;;7.32;5.38;;;;;;;;;;5009787;28;20183;-55
2022/01/04 14:50:21;;;;;;;8.73;5.72;;;;;;;;;;5006122;28;20218;-57
2022/01/04 14:52:47;;;;;;;5.47;4.50;;;;;;;;;;5002425;28;20218;-56
2022/01/04 14:55:12;;;;;;;7.28;5.32;;;;;;;;;;4999743;28;20288;-56